Time;durP1;ratioP1;P1;durP2;ratioP2;P2;SDS_P1;SDS_P2;PMS_P1;PMS_P2;Temp;Humidity;BMP_temperature;BMP_pressure;BME280_temperature;BME280_humidity;BME280_pressure;Samples;Min_cycle;Max_cycle;Signal;HPM_P1;HPM_P2
2022/01/12 00:00:08;;;;;;;1.10;0.90;;;0.30;98.00;;;;;;5095423;28;20497;-69
2022/01/12 00:02:35;;;;;;;1.20;1.00;;;0.20;98.00;;;;;;5095328;28;20538;-69
2022/01/12 00:05:03;;;;;;;1.20;1.20;;;0.10;98.00;;;;;;5095407;28;20523;-70
2022/01/12 00:07:29;;;;;;;1.67;1.30;;;0.00;98.00;;;;;;5095417;28;20459;-70
2022/01/12 00:09:56;;;;;;;1.20;1.00;;;0.10;98.00;;;;;;5095072;28;20450;-71
2022/01/12 00:12:26;;;;;;;1.20;1.00;;;0.20;98.00;;;;;;5094974;28;20944;-70
2022/01/12 00:14:54;;;;;;;1.10;1.00;;;0.20;98.00;;;;;;5095104;28;20493;-69
2022/01/12 00:17:25;;;;;;;1.20;1.00;;;0.10;98.00;;;;;;5094651;28;20537;-69
2022/01/12 00:19:53;;;;;;;1.40;1.30;;;0.20;98.00;;;;;;5092022;28;20465;-69
2022/01/12 00:22:20;;;;;;;1.20;1.00;;;0.20;98.00;;;;;;5093627;28;20501;-70
2022/01/12 00:25:10;;;;;;;1.20;1.00;;;0.00;98.00;;;;;;5094735;28;20494;-70
2022/01/12 00:33:11;;;;;;;1.10;1.00;;;-0.20;98.00;;;;;;5094621;28;20532;-70
2022/01/12 00:35:41;;;;;;;1.30;1.30;;;-0.30;98.00;;;;;;5094505;28;20465;-70
2022/01/12 00:38:08;;;;;;;1.53;1.37;;;-0.40;98.00;;;;;;5094280;28;20495;-69
2022/01/12 00:40:39;;;;;;;1.20;1.07;;;-0.40;98.00;;;;;;5094434;28;20511;-70
2022/01/12 00:43:07;;;;;;;1.27;1.10;;;-0.40;98.00;;;;;;5094461;28;20498;-70
2022/01/12 00:45:39;;;;;;;1.70;1.47;;;-0.40;98.00;;;;;;5093069;28;20522;-69
2022/01/12 00:48:06;;;;;;;1.30;1.30;;;-0.40;98.00;;;;;;5093360;28;20882;-69
2022/01/12 00:50:40;;;;;;;1.30;1.20;;;-0.40;98.00;;;;;;5093964;28;20498;-70
2022/01/12 00:53:07;;;;;;;5.33;2.93;;;-0.40;98.00;;;;;;5094000;28;20961;-69
2022/01/12 00:55:37;;;;;;;2.33;1.87;;;-0.40;98.00;;;;;;5094173;28;20549;-70
2022/01/12 00:58:05;;;;;;;1.73;1.30;;;-0.30;98.00;;;;;;5091716;28;20923;-69
2022/01/12 01:00:33;;;;;;;1.30;1.20;;;-0.20;98.00;;;;;;5094146;28;20448;-70
2022/01/12 01:03:01;;;;;;;2.57;2.00;;;-0.30;98.00;;;;;;5094011;28;20537;-69
2022/01/12 01:05:31;;;;;;;1.20;1.17;;;-0.30;98.00;;;;;;5093811;28;20517;-70
2022/01/12 01:07:58;;;;;;;1.50;1.20;;;-0.40;98.00;;;;;;5093980;28;20471;-70
2022/01/12 01:10:27;;;;;;;1.20;1.10;;;-0.40;98.00;;;;;;5094027;28;20531;-70
2022/01/12 01:12:54;;;;;;;1.77;1.27;;;-0.40;98.00;;;;;;5093938;28;20454;-69
2022/01/12 01:15:29;;;;;;;1.20;1.10;;;-0.30;98.00;;;;;;5093993;28;20495;-69
2022/01/12 01:26:13;;;;;;;1.10;1.00;;;0.10;98.00;;;;;;5093013;28;20485;-69
2022/01/12 01:28:40;;;;;;;1.20;1.10;;;0.20;98.00;;;;;;5093646;28;21070;-69
2022/01/12 01:31:07;;;;;;;1.33;1.33;;;0.10;98.00;;;;;;5093686;28;20963;-70
2022/01/12 01:33:34;;;;;;;1.20;1.17;;;0.00;98.00;;;;;;5093827;28;20850;-70
2022/01/12 01:36:03;;;;;;;1.30;1.27;;;-0.10;98.00;;;;;;5093406;28;20454;-70
2022/01/12 01:38:30;;;;;;;2.37;1.43;;;-0.30;98.00;;;;;;5093558;28;21020;-70
2022/01/12 01:40:57;;;;;;;1.20;1.10;;;-0.30;98.00;;;;;;5093208;28;20953;-70
2022/01/12 01:43:40;;;;;;;1.20;1.20;;;-0.40;98.00;;;;;;5093209;28;20472;-70
2022/01/12 01:54:21;;;;;;;1.20;1.13;;;-0.70;98.00;;;;;;5093293;28;20442;-70
2022/01/12 01:56:48;;;;;;;1.30;1.10;;;-0.70;98.00;;;;;;5092896;28;20493;-69
2022/01/12 01:59:15;;;;;;;1.10;1.00;;;-0.70;98.00;;;;;;5092691;28;20541;-69
2022/01/12 02:01:42;;;;;;;1.20;1.20;;;-0.50;98.00;;;;;;5092790;28;20537;-69
2022/01/12 02:04:09;;;;;;;1.20;1.10;;;-0.70;98.00;;;;;;5092793;28;20490;-69
2022/01/12 02:06:37;;;;;;;1.13;1.07;;;-0.70;98.00;;;;;;5092664;28;20543;-69
2022/01/12 02:09:06;;;;;;;1.20;1.10;;;-0.80;98.00;;;;;;5092718;28;20953;-69
2022/01/12 02:11:34;;;;;;;1.37;1.33;;;-0.70;98.00;;;;;;5092745;28;20541;-69
2022/01/12 02:14:01;;;;;;;1.10;1.00;;;-0.70;98.00;;;;;;5092273;28;20873;-69
2022/01/12 02:16:38;;;;;;;1.10;1.00;;;-0.80;98.00;;;;;;5092817;28;20459;-69
2022/01/12 02:19:17;;;;;;;1.30;1.17;;;-0.80;98.00;;;;;;5092648;28;20795;-69
2022/01/12 02:35:48;;;;;;;1.20;1.10;;;-0.70;98.00;;;;;;5092367;28;20961;-68
2022/01/12 02:41:05;;;;;;;1.60;1.57;;;-1.20;98.00;;;;;;5092568;28;20445;-69
2022/01/12 02:50:36;;;;;;;1.57;1.30;;;-1.30;98.00;;;;;;5092204;28;21076;-69
2022/01/12 02:54:59;;;;;;;1.50;1.20;;;-0.90;98.00;;;;;;5049600;28;20456;-69
2022/01/12 02:57:26;;;;;;;1.10;0.90;;;-1.00;98.00;;;;;;5033032;28;20264;-69
2022/01/12 03:00:05;;;;;;;1.40;1.37;;;-1.20;98.00;;;;;;5068400;28;20497;-69
2022/01/12 03:02:35;;;;;;;4.80;2.60;;;-1.20;98.00;;;;;;5091920;28;20492;-69
2022/01/12 03:07:46;;;;;;;1.20;1.10;;;-1.30;98.00;;;;;;5082292;28;20216;-69
2022/01/12 03:10:15;;;;;;;1.23;1.15;;;-1.40;98.00;;;;;;5091996;28;20256;-69
2022/01/12 03:12:45;;;;;;;3.20;2.50;;;-1.40;98.00;;;;;;5091156;28;20657;-69
2022/01/12 03:15:12;;;;;;;1.20;1.10;;;-1.30;98.00;;;;;;5091615;28;20515;-68
2022/01/12 03:17:39;;;;;;;2.47;1.58;;;-1.20;98.00;;;;;;5090827;28;20247;-69
2022/01/12 03:20:09;;;;;;;1.10;1.00;;;-1.30;98.00;;;;;;5091017;28;20290;-68
2022/01/12 03:22:37;;;;;;;1.58;1.48;;;-1.30;98.00;;;;;;5091617;28;20211;-69
2022/01/12 03:25:04;;;;;;;2.60;2.40;;;-1.20;98.00;;;;;;5091738;28;20610;-69
2022/01/12 03:27:33;;;;;;;1.10;1.00;;;-1.10;98.00;;;;;;5091705;28;20308;-69
2022/01/12 03:30:00;;;;;;;1.20;1.17;;;-1.10;98.00;;;;;;5091646;28;20631;-69
2022/01/12 03:32:34;;;;;;;1.10;1.00;;;-1.10;98.00;;;;;;5091500;28;20250;-69
2022/01/12 03:35:10;;;;;;;2.10;1.35;;;-1.10;98.00;;;;;;5091476;28;20215;-69
2022/01/12 03:37:42;;;;;;;1.13;1.00;;;-1.30;98.00;;;;;;5091590;28;20846;-68
2022/01/12 03:40:11;;;;;;;1.20;1.20;;;-1.50;98.00;;;;;;5091595;28;20488;-69
2022/01/12 03:42:42;;;;;;;1.10;1.00;;;-1.60;98.00;;;;;;5091440;28;20968;-69
2022/01/12 03:45:10;;;;;;;1.10;1.10;;;-1.50;98.00;;;;;;5091673;28;20871;-69
2022/01/12 03:47:37;;;;;;;1.20;1.20;;;-1.60;98.00;;;;;;5091187;28;20295;-69
2022/01/12 03:50:05;;;;;;;1.30;1.23;;;-1.70;98.00;;;;;;5091577;28;20267;-69
2022/01/12 03:52:32;;;;;;;1.10;1.10;;;-1.70;98.00;;;;;;5091582;28;20751;-69
2022/01/12 03:54:59;;;;;;;1.13;1.00;;;-1.70;98.00;;;;;;5091574;28;20572;-69
2022/01/12 03:57:26;;;;;;;2.80;1.73;;;-1.70;98.00;;;;;;5091409;28;20262;-69
2022/01/12 03:59:54;;;;;;;1.20;1.10;;;-1.70;98.00;;;;;;5091542;28;20514;-69
2022/01/12 04:02:24;;;;;;;1.20;1.00;;;-1.80;98.00;;;;;;5091339;28;20644;-68
2022/01/12 04:05:09;;;;;;;1.10;1.00;;;-1.70;98.00;;;;;;5091652;28;20210;-68
2022/01/12 04:10:22;;;;;;;1.73;1.27;;;-1.80;98.00;;;;;;5091532;28;20209;-68
2022/01/12 04:12:49;;;;;;;2.17;1.63;;;-1.90;98.00;;;;;;5091546;28;20294;-69
2022/01/12 04:15:17;;;;;;;1.20;1.10;;;-1.90;98.00;;;;;;5091443;28;20669;-69
2022/01/12 04:17:44;;;;;;;1.10;1.00;;;-2.00;98.00;;;;;;5091476;28;20202;-68
2022/01/12 04:20:12;;;;;;;1.75;1.25;;;-2.10;98.00;;;;;;5091619;28;20290;-69
2022/01/12 04:25:25;;;;;;;3.87;1.60;;;-2.00;98.00;;;;;;5094684;28;20700;-69
2022/01/12 04:27:53;;;;;;;2.17;1.40;;;-1.90;98.00;;;;;;5093573;28;20478;-68
2022/01/12 04:30:21;;;;;;;1.10;1.00;;;-2.00;98.00;;;;;;5094995;28;20958;-68
2022/01/12 04:32:48;;;;;;;2.58;2.03;;;-1.90;98.00;;;;;;5094383;28;20235;-69
2022/01/12 04:35:16;;;;;;;1.10;1.00;;;-1.90;98.00;;;;;;5094902;28;20652;-68
2022/01/12 04:37:44;;;;;;;2.60;1.55;;;-2.00;98.00;;;;;;5094458;28;20198;-70
2022/01/12 04:40:11;;;;;;;1.10;1.00;;;-1.90;98.00;;;;;;5094420;28;20277;-68
2022/01/12 04:42:38;;;;;;;1.15;1.05;;;-1.80;98.00;;;;;;5094692;28;20238;-68
2022/01/12 04:45:18;;;;;;;1.20;1.15;;;-1.80;98.00;;;;;;5094414;28;20264;-69
2022/01/12 04:47:59;;;;;;;1.10;1.00;;;-1.70;98.00;;;;;;5093971;28;20219;-69
2022/01/12 04:50:29;;;;;;;1.30;1.20;;;-1.70;98.00;;;;;;5092979;28;20206;-68
2022/01/12 04:52:57;;;;;;;1.40;1.37;;;-1.60;98.00;;;;;;5092880;28;20211;-69
2022/01/12 04:55:24;;;;;;;1.20;1.17;;;-1.40;98.00;;;;;;5094153;28;20484;-69
2022/01/12 04:57:51;;;;;;;1.10;1.00;;;-1.30;98.00;;;;;;5093980;28;20772;-68
2022/01/12 05:00:27;;;;;;;1.55;1.52;;;-1.40;98.00;;;;;;5093080;28;20289;-69
2022/01/12 05:08:51;;;;;;;1.20;1.10;;;-1.70;98.00;;;;;;5051057;28;20191;-69
2022/01/12 05:14:03;;;;;;;1.20;1.17;;;-1.80;98.00;;;;;;5093822;28;20197;-68
2022/01/12 05:16:32;;;;;;;1.30;1.20;;;-1.70;98.00;;;;;;5094031;28;20256;-68
2022/01/12 05:19:01;;;;;;;1.20;1.10;;;-1.60;98.00;;;;;;5092575;28;20261;-68
2022/01/12 05:21:29;;;;;;;1.88;1.65;;;-1.50;98.00;;;;;;5093774;28;20198;-69
2022/01/12 05:23:59;;;;;;;1.10;0.90;;;-1.60;98.00;;;;;;5092538;28;20741;-70
2022/01/12 05:26:27;;;;;;;1.20;1.10;;;-1.70;98.00;;;;;;5093710;28;20268;-68
2022/01/12 05:28:55;;;;;;;1.10;0.98;;;-1.70;98.00;;;;;;5093587;28;20239;-68
2022/01/12 05:31:23;;;;;;;1.10;1.02;;;-1.60;98.00;;;;;;5093808;28;20286;-69
2022/01/12 05:33:49;;;;;;;1.67;1.60;;;-1.60;98.00;;;;;;5093576;28;20244;-69
2022/01/12 05:36:19;;;;;;;1.20;1.20;;;-1.70;98.00;;;;;;5093103;28;20601;-68
2022/01/12 05:38:46;;;;;;;1.20;1.00;;;-1.60;98.00;;;;;;5093545;28;20532;-68
2022/01/12 05:41:13;;;;;;;2.58;2.20;;;-1.70;98.00;;;;;;5093628;28;20279;-69
2022/01/12 05:43:42;;;;;;;1.73;1.45;;;-1.80;98.00;;;;;;5093222;28;20241;-68
2022/01/12 05:46:11;;;;;;;1.10;1.02;;;-1.80;98.00;;;;;;5093541;28;20653;-69
2022/01/12 05:51:25;;;;;;;1.10;1.10;;;-1.90;98.00;;;;;;5092132;28;20209;-68
2022/01/12 05:53:53;;;;;;;1.50;1.30;;;-1.90;98.00;;;;;;5093499;28;20234;-68
2022/01/12 05:56:20;;;;;;;2.15;1.45;;;-1.90;98.00;;;;;;5092935;28;20289;-68
2022/01/12 05:58:49;;;;;;;1.50;1.40;;;-2.00;98.00;;;;;;5092732;28;20234;-68
2022/01/12 06:01:16;;;;;;;1.20;1.10;;;-2.10;98.00;;;;;;5093084;28;20207;-69
2022/01/12 06:03:43;;;;;;;1.10;1.00;;;-2.20;98.00;;;;;;5092802;28;20675;-69
2022/01/12 06:06:10;;;;;;;1.52;1.30;;;-2.30;98.00;;;;;;5092647;28;20298;-69
2022/01/12 06:08:39;;;;;;;1.20;1.10;;;-2.30;98.00;;;;;;5092652;28;20226;-68
2022/01/12 06:11:06;;;;;;;2.00;1.70;;;-2.30;98.00;;;;;;5092804;28;20669;-68
2022/01/12 06:13:33;;;;;;;1.10;1.10;;;-2.40;98.00;;;;;;5092533;28;20258;-70
2022/01/12 06:16:00;;;;;;;1.10;1.10;;;-2.40;98.00;;;;;;5091462;28;20696;-69
2022/01/12 06:18:27;;;;;;;1.10;1.10;;;-2.20;98.00;;;;;;5092679;28;20657;-68
2022/01/12 06:20:55;;;;;;;1.20;1.10;;;-2.10;98.00;;;;;;5092629;28;20198;-68
2022/01/12 06:23:23;;;;;;;1.45;1.25;;;-2.10;98.00;;;;;;5091202;28;20581;-69
2022/01/12 06:25:52;;;;;;;1.10;1.08;;;-2.20;98.00;;;;;;5092342;28;20246;-68
2022/01/12 06:28:35;;;;;;;1.25;1.23;;;-2.20;98.00;;;;;;5092704;28;20231;-69
2022/01/12 06:31:14;;;;;;;2.08;1.55;;;-2.40;98.00;;;;;;5092379;28;20728;-67
2022/01/12 06:33:45;;;;;;;1.40;1.35;;;-2.50;98.00;;;;;;5092296;28;20703;-69
2022/01/12 06:36:14;;;;;;;3.08;2.88;;;-2.60;98.00;;;;;;5092444;28;20676;-69
2022/01/12 06:38:41;;;;;;;1.20;1.20;;;-2.70;98.00;;;;;;5092325;28;20237;-69
2022/01/12 06:41:10;;;;;;;1.10;1.00;;;-2.60;98.00;;;;;;5092242;28;20338;-69
2022/01/12 06:43:37;;;;;;;1.10;1.00;;;-2.60;98.00;;;;;;5092069;28;20301;-69
2022/01/12 06:46:04;;;;;;;2.05;1.45;;;-2.50;98.00;;;;;;5091490;28;20294;-68
2022/01/12 06:48:31;;;;;;;3.05;1.90;;;-2.60;98.00;;;;;;5091876;28;20261;-69
2022/01/12 06:50:59;;;;;;;2.95;1.42;;;-2.60;98.00;;;;;;5092279;28;20206;-68
2022/01/12 06:53:26;;;;;;;1.30;1.20;;;-2.50;98.00;;;;;;5092120;28;20237;-68
2022/01/12 06:55:53;;;;;;;1.10;0.95;;;-2.50;98.00;;;;;;5092252;28;20201;-69
2022/01/12 06:58:21;;;;;;;1.80;1.75;;;-2.50;98.00;;;;;;5091934;28;20198;-68
2022/01/12 07:00:48;;;;;;;1.20;1.10;;;-2.50;98.00;;;;;;5092029;28;20237;-68
2022/01/12 07:03:17;;;;;;;1.40;1.27;;;-2.50;98.00;;;;;;5092136;28;20652;-69
2022/01/12 07:05:44;;;;;;;1.10;1.00;;;-2.40;98.00;;;;;;5090892;28;20202;-68
2022/01/12 07:08:11;;;;;;;1.10;1.10;;;-2.30;98.00;;;;;;5092104;28;20222;-68
2022/01/12 07:10:38;;;;;;;4.00;1.55;;;-2.30;98.00;;;;;;5092121;28;20241;-68
2022/01/12 07:13:05;;;;;;;1.20;1.13;;;-2.30;98.00;;;;;;5092035;28;20708;-69
2022/01/12 07:15:33;;;;;;;3.15;1.75;;;-2.20;98.00;;;;;;5091914;28;20202;-69
2022/01/12 07:18:03;;;;;;;1.23;1.15;;;-2.00;98.00;;;;;;5091819;28;20229;-68
2022/01/12 07:20:31;;;;;;;1.45;1.38;;;-1.90;98.00;;;;;;5092003;28;20206;-68
2022/01/12 07:22:58;;;;;;;2.60;1.92;;;-1.80;98.00;;;;;;5091533;28;20217;-69
2022/01/12 07:25:25;;;;;;;1.60;1.58;;;-1.70;98.00;;;;;;5091892;28;20248;-69
2022/01/12 07:27:52;;;;;;;1.45;1.38;;;-1.70;98.00;;;;;;5091519;28;20231;-68
2022/01/12 07:30:24;;;;;;;1.10;1.00;;;-1.80;98.00;;;;;;5091547;28;20671;-69
2022/01/12 07:32:55;;;;;;;1.63;1.42;;;-2.00;98.00;;;;;;5091532;28;20205;-69
2022/01/12 07:35:22;;;;;;;1.55;1.55;;;-2.10;98.00;;;;;;5091751;28;20271;-69
2022/01/12 07:37:49;;;;;;;1.75;1.65;;;-2.20;98.00;;;;;;5091440;28;20231;-68
2022/01/12 07:40:16;;;;;;;1.10;1.10;;;-2.20;98.00;;;;;;5091496;28;20293;-69
2022/01/12 07:42:44;;;;;;;1.30;1.25;;;-2.20;98.00;;;;;;5091521;28;20210;-69
2022/01/12 07:45:11;;;;;;;1.50;1.30;;;-2.20;98.00;;;;;;5091548;28;20238;-69
2022/01/12 07:47:39;;;;;;;1.95;1.75;;;-2.20;98.00;;;;;;5091263;28;20318;-68
2022/01/12 07:50:09;;;;;;;1.10;1.00;;;-2.30;98.00;;;;;;5091414;28;20202;-69
2022/01/12 07:52:48;;;;;;;2.22;2.10;;;-2.20;98.00;;;;;;5091264;28;20272;-69
2022/01/12 07:55:15;;;;;;;1.10;1.00;;;-2.20;98.00;;;;;;5091627;28;20293;-68
2022/01/12 07:57:43;;;;;;;1.45;1.30;;;-2.00;98.00;;;;;;5092088;28;20195;-69
2022/01/12 08:00:10;;;;;;;1.35;1.30;;;-2.00;98.00;;;;;;5095143;28;20199;-68
2022/01/12 08:02:37;;;;;;;1.95;1.42;;;-2.00;98.00;;;;;;5095339;28;20796;-69
2022/01/12 08:05:05;;;;;;;2.10;1.30;;;-1.90;98.00;;;;;;5094533;28;20786;-68
2022/01/12 08:07:36;;;;;;;1.20;1.10;;;-1.90;98.00;;;;;;5094229;28;20320;-68
2022/01/12 08:10:04;;;;;;;2.67;2.25;;;-1.90;98.00;;;;;;5094731;28;20207;-69
2022/01/12 08:12:31;;;;;;;1.45;1.35;;;-1.70;98.00;;;;;;5095017;28;20265;-68
2022/01/12 08:14:58;;;;;;;1.42;1.23;;;-1.60;98.00;;;;;;5093910;28;20241;-68
2022/01/12 08:17:25;;;;;;;1.95;1.83;;;-1.60;98.00;;;;;;5094968;28;20199;-69
2022/01/12 08:19:55;;;;;;;1.10;1.10;;;-1.50;98.00;;;;;;5094802;28;20208;-69
2022/01/12 08:22:22;;;;;;;2.53;2.33;;;-1.50;98.00;;;;;;5094867;28;20302;-69
2022/01/12 08:24:50;;;;;;;1.20;1.17;;;-1.50;98.00;;;;;;5094944;28;20202;-68
2022/01/12 08:27:17;;;;;;;1.25;1.15;;;-1.50;98.00;;;;;;5093624;28;20294;-69
2022/01/12 08:29:44;;;;;;;2.90;1.60;;;-1.60;98.00;;;;;;5094851;28;20253;-70
2022/01/12 08:32:11;;;;;;;1.10;1.10;;;-1.40;98.00;;;;;;5094627;28;20462;-68
2022/01/12 08:34:39;;;;;;;1.75;1.52;;;-1.20;98.00;;;;;;5094988;28;20485;-69
2022/01/12 08:37:06;;;;;;;1.10;1.10;;;-1.20;98.00;;;;;;5093562;28;20230;-69
2022/01/12 08:39:34;;;;;;;2.10;1.95;;;-1.00;98.00;;;;;;5092533;28;20286;-69
2022/01/12 08:42:02;;;;;;;2.47;1.40;;;-0.90;98.00;;;;;;5102854;28;20204;-69
2022/01/12 08:44:29;;;;;;;1.65;1.55;;;-0.80;98.00;;;;;;5109928;28;20199;-69
2022/01/12 08:46:56;;;;;;;2.17;1.30;;;-0.70;98.00;;;;;;5092842;28;20234;-69
2022/01/12 08:49:24;;;;;;;1.40;1.30;;;-0.50;98.00;;;;;;5098891;28;20223;-69
2022/01/12 08:51:51;;;;;;;1.40;1.40;;;-0.50;98.00;;;;;;5085826;28;20461;-69
2022/01/12 08:54:19;;;;;;;1.77;1.60;;;-0.40;98.00;;;;;;5093273;28;20544;-69
2022/01/12 08:56:46;;;;;;;1.20;1.10;;;-0.30;98.00;;;;;;5101258;27;20458;-69
2022/01/12 08:59:15;;;;;;;1.30;1.30;;;-0.30;98.00;;;;;;5101996;28;20548;-69
2022/01/12 09:01:43;;;;;;;1.10;1.10;;;-0.40;98.00;;;;;;5109550;28;20226;-69
2022/01/12 09:04:10;;;;;;;1.73;1.40;;;-0.50;98.00;;;;;;5092807;28;20492;-69
2022/01/12 09:06:37;;;;;;;2.40;2.27;;;-0.60;98.00;;;;;;5101549;28;20494;-69
2022/01/12 09:09:05;;;;;;;1.50;1.40;;;-0.60;98.00;;;;;;5109626;28;20998;-69
2022/01/12 09:11:33;;;;;;;1.38;1.30;;;-0.50;98.00;;;;;;5100654;28;20887;-69
2022/01/12 09:14:00;;;;;;;1.10;1.00;;;-0.50;98.00;;;;;;5093131;28;20203;-68
2022/01/12 09:16:28;;;;;;;4.23;1.80;;;-0.60;98.00;;;;;;5101034;28;20287;-70
2022/01/12 09:18:56;;;;;;;1.93;1.73;;;-0.50;98.00;;;;;;5092403;28;20449;-69
2022/01/12 09:21:24;;;;;;;1.10;1.10;;;-0.50;98.00;;;;;;5102191;28;20480;-69
2022/01/12 09:23:51;;;;;;;1.20;1.10;;;-0.50;98.00;;;;;;5092906;28;20229;-70
2022/01/12 09:26:18;;;;;;;1.93;1.73;;;-0.40;98.00;;;;;;5101525;28;20484;-69
2022/01/12 09:28:50;;;;;;;1.40;1.30;;;-0.30;98.00;;;;;;5091929;28;20586;-70
2022/01/12 09:31:18;;;;;;;1.27;1.23;;;-0.40;98.00;;;;;;5110922;28;20465;-69
2022/01/12 09:33:50;;;;;;;1.50;1.43;;;-0.20;98.00;;;;;;5100426;28;20911;-69
2022/01/12 09:36:18;;;;;;;2.05;1.73;;;-0.30;98.00;;;;;;5092426;28;20458;-69
2022/01/12 09:38:46;;;;;;;1.10;1.07;;;-0.20;98.00;;;;;;5104378;28;20258;-69
2022/01/12 09:41:13;;;;;;;1.60;1.50;;;-0.20;98.00;;;;;;5100902;28;20515;-69
2022/01/12 09:43:42;;;;;;;1.60;1.50;;;-0.20;98.00;;;;;;5092392;28;20876;-69
2022/01/12 09:46:11;;;;;;;2.00;1.50;;;0.10;98.00;;;;;;5091565;28;20511;-70
2022/01/12 09:48:38;;;;;;;1.10;1.10;;;0.20;98.00;;;;;;5083801;28;20484;-69
2022/01/12 09:51:08;;;;;;;1.20;1.20;;;0.30;98.00;;;;;;5103218;28;20484;-69
2022/01/12 09:53:37;;;;;;;1.73;1.63;;;0.40;98.00;;;;;;5092563;28;20448;-68
2022/01/12 09:56:09;;;;;;;1.10;1.00;;;0.60;98.00;;;;;;5092037;28;21016;-66
2022/01/12 09:58:36;;;;;;;1.53;1.40;;;0.80;98.00;;;;;;5108899;28;20462;-66
2022/01/12 10:01:04;;;;;;;1.50;1.40;;;0.90;98.00;;;;;;5100421;28;20535;-67
2022/01/12 10:03:31;;;;;;;1.30;1.27;;;1.10;98.00;;;;;;5099899;28;20477;-68
2022/01/12 10:05:58;;;;;;;1.10;1.10;;;1.10;98.00;;;;;;5092047;28;20523;-67
2022/01/12 10:08:27;;;;;;;1.20;1.10;;;1.20;98.00;;;;;;5108540;28;20481;-68
2022/01/12 10:11:05;;;;;;;1.10;0.90;;;1.20;98.00;;;;;;5100354;28;20513;-67
2022/01/12 10:13:32;;;;;;;1.10;1.10;;;1.10;98.00;;;;;;5085104;28;20460;-67
2022/01/12 10:16:12;;;;;;;1.23;1.20;;;1.10;98.00;;;;;;5092733;28;20498;-68
2022/01/12 10:18:49;;;;;;;1.10;1.00;;;1.00;98.00;;;;;;5102822;28;20492;-69
2022/01/12 10:21:30;;;;;;;1.60;1.57;;;1.10;98.00;;;;;;5099907;28;20950;-67
2022/01/12 10:24:03;;;;;;;1.50;1.43;;;1.50;98.00;;;;;;5088775;28;20479;-69
2022/01/12 10:26:37;;;;;;;1.40;1.17;;;1.70;98.00;;;;;;5100204;28;20459;-69
2022/01/12 10:29:07;;;;;;;1.57;1.57;;;1.70;98.00;;;;;;5074654;28;20526;-69
2022/01/12 10:31:48;;;;;;;2.17;1.57;;;1.60;98.00;;;;;;5107270;28;20928;-70
2022/01/12 10:34:15;;;;;;;1.20;1.00;;;1.70;98.00;;;;;;5099800;28;20450;-68
2022/01/12 10:36:44;;;;;;;1.97;1.87;;;1.90;98.00;;;;;;5090480;28;20550;-68
2022/01/12 10:39:14;;;;;;;1.20;1.10;;;1.80;98.00;;;;;;5105294;28;20458;-68
2022/01/12 10:41:59;;;;;;;1.30;1.20;;;1.80;98.00;;;;;;5091519;28;20528;-68
2022/01/12 10:44:29;;;;;;;1.13;1.07;;;1.80;98.00;;;;;;5093093;28;20805;-68
2022/01/12 10:47:08;;;;;;;1.33;1.13;;;1.90;98.00;;;;;;5107833;28;20471;-68
2022/01/12 10:49:37;;;;;;;1.20;1.20;;;1.80;98.00;;;;;;5093838;28;20585;-68
2022/01/12 10:52:08;;;;;;;1.83;1.30;;;1.60;98.00;;;;;;5094911;28;20439;-71
2022/01/12 10:54:55;;;;;;;1.20;1.10;;;1.50;98.00;;;;;;5092154;28;20469;-69
2022/01/12 10:57:25;;;;;;;1.10;1.00;;;1.40;98.00;;;;;;5097066;28;20551;-69
2022/01/12 11:00:10;;;;;;;1.10;1.10;;;1.50;98.00;;;;;;5099239;28;20822;-69
2022/01/12 11:02:40;;;;;;;1.60;1.50;;;1.70;98.00;;;;;;5081045;28;20463;-67
2022/01/12 11:05:08;;;;;;;2.07;1.77;;;1.90;98.00;;;;;;5094109;28;20559;-68
2022/01/12 11:07:39;;;;;;;1.10;1.00;;;2.00;98.00;;;;;;5099692;28;20929;-67
2022/01/12 11:10:27;;;;;;;1.40;1.40;;;2.10;98.00;;;;;;5090849;28;20861;-67
2022/01/12 11:12:54;;;;;;;1.60;1.50;;;2.10;98.00;;;;;;5092411;28;20467;-67
2022/01/12 11:15:22;;;;;;;1.10;1.00;;;2.10;98.00;;;;;;5099826;28;20474;-67
2022/01/12 11:17:53;;;;;;;1.10;1.00;;;2.20;98.00;;;;;;5100564;28;20466;-67
2022/01/12 11:20:25;;;;;;;1.20;1.10;;;2.20;98.00;;;;;;5093821;28;20530;-67
2022/01/12 11:22:59;;;;;;;1.20;1.07;;;2.20;98.00;;;;;;5095829;28;20541;-67
2022/01/12 11:25:30;;;;;;;5.03;1.37;;;2.30;98.00;;;;;;5093966;28;20995;-68
2022/01/12 11:28:13;;;;;;;1.20;1.20;;;2.50;98.00;;;;;;5105651;28;20499;-67
2022/01/12 11:30:42;;;;;;;1.20;1.10;;;2.70;98.00;;;;;;5092910;28;20539;-68
2022/01/12 11:33:11;;;;;;;1.50;1.17;;;2.80;98.00;;;;;;5094938;28;20494;-68
2022/01/12 11:35:41;;;;;;;1.13;1.00;;;2.90;98.00;;;;;;5097114;28;20464;-68
2022/01/12 11:38:20;;;;;;;1.20;1.10;;;3.00;98.00;;;;;;5105264;28;20466;-68
2022/01/12 11:40:50;;;;;;;1.10;1.00;;;3.20;98.00;;;;;;5092827;28;20464;-68
2022/01/12 11:43:19;;;;;;;1.50;1.30;;;3.60;98.00;;;;;;5094109;28;20538;-68
2022/01/12 11:45:59;;;;;;;1.70;1.10;;;3.90;98.00;;;;;;5102828;28;20500;-68
2022/01/12 11:48:30;;;;;;;1.30;1.20;;;4.00;98.00;;;;;;5094929;28;20557;-68
2022/01/12 11:50:57;;;;;;;1.20;1.00;;;4.20;98.00;;;;;;5093352;28;20460;-67
2022/01/12 11:53:24;;;;;;;6.43;1.77;;;4.30;98.00;;;;;;5094879;28;21022;-68
2022/01/12 11:55:53;;;;;;;1.43;1.27;;;4.20;98.00;;;;;;5102156;28;20560;-68
2022/01/12 11:58:22;;;;;;;1.40;1.33;;;4.10;98.00;;;;;;5095052;28;20583;-68
2022/01/12 12:00:49;;;;;;;1.70;1.60;;;3.90;98.00;;;;;;5111458;28;20459;-68
2022/01/12 12:03:19;;;;;;;1.13;1.00;;;3.90;98.00;;;;;;5093996;28;20456;-68
2022/01/12 12:05:47;;;;;;;1.87;1.83;;;4.00;98.00;;;;;;5111091;28;20486;-68
2022/01/12 12:08:25;;;;;;;1.60;1.50;;;3.90;98.00;;;;;;5101371;28;20452;-68
2022/01/12 12:10:55;;;;;;;1.60;1.27;;;3.90;98.00;;;;;;5110970;28;20512;-67
2022/01/12 12:13:22;;;;;;;1.20;1.00;;;3.80;98.00;;;;;;5110975;28;20463;-67
2022/01/12 12:15:52;;;;;;;1.30;1.03;;;3.80;98.00;;;;;;5109003;28;20456;-68
2022/01/12 12:18:20;;;;;;;1.77;1.47;;;3.90;98.00;;;;;;5104806;28;20450;-68
2022/01/12 12:20:47;;;;;;;5.37;1.67;;;4.10;98.00;;;;;;5110497;28;20492;-68
2022/01/12 12:23:15;;;;;;;1.77;1.67;;;4.30;98.00;;;;;;5100300;28;20451;-67
2022/01/12 12:25:42;;;;;;;1.20;1.00;;;4.40;98.00;;;;;;5094307;28;20509;-67
2022/01/12 12:28:13;;;;;;;1.63;1.23;;;4.40;98.00;;;;;;5104349;28;20448;-67
2022/01/12 12:30:41;;;;;;;1.30;1.10;;;4.30;98.00;;;;;;5109174;28;20570;-68
2022/01/12 12:33:11;;;;;;;1.67;1.23;;;4.50;98.00;;;;;;5104202;28;20537;-68
2022/01/12 12:35:39;;;;;;;1.17;1.00;;;4.70;98.00;;;;;;5099082;28;20503;-68
2022/01/12 12:38:08;;;;;;;1.20;0.90;;;4.80;98.00;;;;;;5093702;28;20460;-67
2022/01/12 12:40:37;;;;;;;1.20;1.20;;;4.80;98.00;;;;;;5105105;28;20937;-67
2022/01/12 12:43:07;;;;;;;1.57;1.37;;;5.00;98.00;;;;;;5101491;28;20468;-68
2022/01/12 12:45:43;;;;;;;1.30;1.20;;;5.20;98.00;;;;;;5100598;28;20455;-68
2022/01/12 12:48:12;;;;;;;1.20;1.10;;;5.50;98.00;;;;;;5109511;28;20978;-68
2022/01/12 12:50:39;;;;;;;1.97;1.30;;;5.70;98.00;;;;;;5105263;28;20525;-68
2022/01/12 12:53:06;;;;;;;1.20;1.00;;;5.80;98.00;;;;;;5109895;28;20895;-67
2022/01/12 12:55:38;;;;;;;1.20;1.10;;;5.90;98.00;;;;;;5114412;28;20817;-67
2022/01/12 12:58:12;;;;;;;1.37;1.27;;;6.20;98.00;;;;;;5114652;28;21238;-68
2022/01/12 13:00:44;;;;;;;1.43;1.30;;;6.40;98.00;;;;;;5114164;28;20977;-67
2022/01/12 13:03:11;;;;;;;1.63;1.53;;;6.60;98.00;;;;;;5113698;28;20939;-67
2022/01/12 13:05:50;;;;;;;3.67;2.27;;;6.80;98.00;;;;;;5113657;28;20500;-67
2022/01/12 13:08:17;;;;;;;1.40;1.30;;;6.80;98.00;;;;;;5113509;28;20959;-67
2022/01/12 13:10:44;;;;;;;2.03;1.33;;;7.00;98.00;;;;;;5114112;28;20490;-66
2022/01/12 13:13:11;;;;;;;1.30;1.10;;;6.80;98.00;;;;;;5114504;28;20591;-67
2022/01/12 13:15:40;;;;;;;1.30;1.10;;;6.80;98.00;;;;;;5113072;28;20548;-67
2022/01/12 13:18:11;;;;;;;1.43;1.30;;;6.60;98.00;;;;;;5114062;28;20522;-67
2022/01/12 13:23:25;;;;;;;1.63;1.27;;;6.80;98.00;;;;;;5114210;28;21003;-67
2022/01/12 13:25:55;;;;;;;1.53;1.10;;;6.80;97.90;;;;;;5113916;28;20462;-67
2022/01/12 13:28:22;;;;;;;1.20;1.00;;;6.50;98.00;;;;;;5114078;28;20559;-67
2022/01/12 13:30:52;;;;;;;2.90;2.00;;;6.30;98.00;;;;;;5112664;28;20483;-66
2022/01/12 13:33:29;;;;;;;1.20;1.10;;;6.00;98.00;;;;;;5113872;28;20462;-67
2022/01/12 13:35:58;;;;;;;1.63;1.20;;;5.60;98.00;;;;;;5113982;28;20456;-67
2022/01/12 13:38:27;;;;;;;1.20;1.00;;;5.20;98.00;;;;;;5113883;28;20455;-67
2022/01/12 13:40:56;;;;;;;1.20;1.10;;;5.00;98.00;;;;;;5113855;28;20459;-67
2022/01/12 13:43:24;;;;;;;1.40;1.20;;;4.60;98.00;;;;;;5113864;28;20465;-67
2022/01/12 13:46:00;;;;;;;1.20;1.10;;;4.60;98.00;;;;;;5113637;28;20448;-67
2022/01/12 13:48:32;;;;;;;1.93;1.60;;;4.60;98.00;;;;;;5113498;28;20916;-67
2022/01/12 13:51:03;;;;;;;1.20;1.00;;;4.60;98.00;;;;;;5113674;28;20578;-66
2022/01/12 13:53:34;;;;;;;2.30;1.10;;;4.30;98.00;;;;;;5113663;28;20458;-67
2022/01/12 13:56:01;;;;;;;1.40;1.33;;;4.10;98.00;;;;;;5113256;28;20496;-66
2022/01/12 13:58:30;;;;;;;2.40;1.50;;;4.00;98.00;;;;;;5113456;28;20459;-67
2022/01/12 14:01:05;;;;;;;1.40;1.27;;;3.90;98.00;;;;;;5113566;28;20840;-67
2022/01/12 14:03:42;;;;;;;2.80;1.60;;;3.80;98.00;;;;;;5113602;28;20801;-67
2022/01/12 14:06:17;;;;;;;1.50;1.40;;;3.70;98.00;;;;;;5113760;28;20877;-67
2022/01/12 14:08:52;;;;;;;5.83;2.03;;;3.70;98.00;;;;;;5113481;28;20455;-67
2022/01/12 14:11:20;;;;;;;4.40;1.90;;;3.60;98.00;;;;;;5113330;28;20533;-67